Stillwater, NJ (07875)

5:22 PM EDT on October 23, 2014 (GMT -0400)
Crandon Lakes | Change Station
CLOSE
Current Station
Personal Weather Station
Location: Newton, NJ
Elevation: 869 ft
Nearby Weather Stations

Elev 869 ft 41.13 °N, 74.84 °W | Updated 2 seconds ago

Overcast
Overcast
48.0 °F
Feels Like 45 °F
N
6.0
Wind Variable Wind from North
Gusts 13.0 mph

Today
High -- | Low -- °F
--% Chance of Precip.
Yesterday
High -- | Low -- °F
Precip. -- in
7:19 AM 6:07 PM
Waning Crescent, 0% visible
Pressure 29.77 in
Visibility 10.0 miles
Clouds Overcast 4100 ft
Windchill 45 °F
Dew Point 46 °F
Humidity 91%
Rainfall 0.00 in
Snow Depth Not available.
UV 0 out of 12
Pollen .10 out of 12
Air Quality Not available.
Flu Activity Sporadic
METAR KFWN 232053Z AUTO VRB05KT 10SM OVC041 12/06 A2977 RMK AO2 SLP080 60001 T01170061 51007

More Conditions Fewer Conditions

Pressure 29.77 in
Visibility 10.0 miles
Clouds Overcast 4100 ft
Windchill 45 °F
Dew Point 46 °F
Humidity 91%
Rainfall 0.00 in
Snow Depth Not available.
UV 0 out of 12
Pollen .10 out of 12
Air Quality Not available.
Flu Activity Sporadic
METAR KFWN 232053Z AUTO VRB05KT 10SM OVC041 12/06 A2977 RMK AO2 SLP080 60001 T01170061 51007

More Conditions Fewer Conditions

10-Day Weather Forecast

Almanac

Astronomy

Oct. 23, 2014 Rise Set
Actual Time 7:19 AM EDT 6:07 PM EDT
Civil Twilight 6:51 AM EDT 6:35 PM EDT
Nautical Twilight 6:19 AM EDT 7:07 PM EDT
Astronomical Twilight 5:47 AM EDT 7:39 PM EDT
Moon 6:56 AM EDT 6:07 PM EDT
Length of Visible Light 11h 43m
Length of Day
10h 47m
Tomorrow will be 2m 33s shorter.
Waning Crescent, 0% of the Moon is Illuminated
Today
Waning Crescent
Oct 23
New
Oct 30
First Quarter
Nov 6
Full
Nov 14
Last Quarter

Today's Extremes

State Highs State Lows

Community

WunderPhotos

Upload Photos

1,764,374 photos uploaded!

WunderBlogs® & News

Nearby

Snow Depth

Station Depth Elevation
No new snow has been reported.

Earthquake Activity

City Distance Mag. Time & Date
No recent earthquake activity has been reported nearby.
Minimum magnitude displayed is 2.5.

Coastal Water Temperatures

Place Temperature
No Stations Reporting

Nearby Weather Stations